Rutland, Illinois
Current Conditions -  °F | °C
As of 11:35 PM on Tuesday 25 Nov 2014 (Local Time) from KC75 Reporting Station
Clear Clear  
Wind Chill: 19°   Ceiling: Unl
Heat Index: 19°   Visibility: 10mi
Dew Point: 16°   Wind: 3mph
Humidity: 89%   Direction: 160°SSE
Pressure: 30.18"   Gusts: NA
Location:  40.98°N, 89.04°W
Report Text: KC75 260535Z AUTO 16003KT 10SM CLR M07/M09 A3018 RMK AO2 T10731089
Loading
Personal Weather Stations






























Interactive Weather Map New forecast layout! Learn more

10-Day Weather Forecast

Advertisements
Track Severe Weather on mobile